createdAt,value
2017-11-01T00:00:51.814Z,79.47
2017-11-01T00:03:18.471Z,86.03
2017-11-01T00:05:45.844Z,78.20
2017-11-01T00:08:12.563Z,89.97
2017-11-01T00:10:39.179Z,90.80
2017-11-01T00:13:05.733Z,88.20
2017-11-01T00:15:32.744Z,82.83
2017-11-01T00:17:59.338Z,89.40
2017-11-01T00:20:26.057Z,77.93
2017-11-01T00:22:52.559Z,85.97
2017-11-01T00:25:19.232Z,91.43
2017-11-01T00:27:46.098Z,82.73
2017-11-01T00:30:12.815Z,93.60
2017-11-01T00:32:39.997Z,91.60
2017-11-01T00:35:06.714Z,93.00
2017-11-01T00:37:33.529Z,82.20
2017-11-01T00:40:00.231Z,93.83
2017-11-01T00:42:26.883Z,108.90
2017-11-01T00:44:53.589Z,99.47
2017-11-01T00:47:20.825Z,87.80
2017-11-01T00:49:47.998Z,100.43
2017-11-01T00:52:14.682Z,95.97
2017-11-01T00:54:41.630Z,80.00
2017-11-01T00:57:08.359Z,108.93
2017-11-01T00:59:35.867Z,94.63
2017-11-01T01:02:03.433Z,103.50
2017-11-01T01:04:30.156Z,111.77
2017-11-01T01:06:56.712Z,91.97
2017-11-01T01:09:24.414Z,102.47
2017-11-01T01:11:51.158Z,77.50
2017-11-01T01:14:18.095Z,99.90
2017-11-01T01:16:46.148Z,110.07
2017-11-01T01:19:12.808Z,128.30
2017-11-01T01:21:39.394Z,96.47
2017-11-01T01:24:07.078Z,108.10
2017-11-01T01:26:34.693Z,100.20
2017-11-01T01:29:01.445Z,89.83
2017-11-01T01:31:28.225Z,103.53
2017-11-01T01:33:54.968Z,90.10
2017-11-01T01:36:22.526Z,86.93
2017-11-01T01:38:49.291Z,88.77
2017-11-01T01:41:15.976Z,85.03
2017-11-01T01:43:42.999Z,83.33
2017-11-01T01:46:10.540Z,80.57
2017-11-01T01:48:37.430Z,78.00
2017-11-01T01:51:04.055Z,68.90
2017-11-01T01:53:30.641Z,67.33
2017-11-01T01:55:59.237Z,63.10
2017-11-01T01:58:26.184Z,65.50
2017-11-01T02:00:54.427Z,64.93
2017-11-01T02:03:21.952Z,63.40
2017-11-01T02:05:52.056Z,51.83
2017-11-01T02:08:20.617Z,58.57
2017-11-01T02:10:49.032Z,68.83
2017-11-01T02:13:19.143Z,64.17
2017-11-01T02:15:51.272Z,62.80
2017-11-01T02:18:19.104Z,66.90
2017-11-01T02:20:46.117Z,61.00
2017-11-01T02:23:13.230Z,56.83
2017-11-01T02:25:42.907Z,59.53
2017-11-01T02:28:19.942Z,59.87
2017-11-01T02:30:52.881Z,53.00
2017-11-01T02:38:39.135Z,51.10
2017-11-01T02:41:06.580Z,44.57
2017-11-01T02:43:38.835Z,54.23
2017-11-01T02:46:06.958Z,45.73
2017-11-01T02:48:33.682Z,49.03
2017-11-01T02:51:00.523Z,47.60
2017-11-01T02:53:27.073Z,51.33
2017-11-01T02:55:53.879Z,47.60
2017-11-01T02:58:20.726Z,48.90
2017-11-01T03:00:47.403Z,41.43
2017-11-01T03:03:14.136Z,38.40
2017-11-01T03:05:40.956Z,47.37
2017-11-01T03:08:07.531Z,41.73
2017-11-01T03:10:34.078Z,36.50
2017-11-01T03:13:00.951Z,44.37
2017-11-01T03:15:30.359Z,39.20
2017-11-01T03:17:59.084Z,40.17
2017-11-01T03:20:28.249Z,39.63
2017-11-01T03:22:55.337Z,35.37
2017-11-01T03:25:22.792Z,41.77
2017-11-01T03:27:49.444Z,38.33
2017-11-01T03:30:16.933Z,48.83
2017-11-01T03:32:43.491Z,32.07
2017-11-01T03:35:10.310Z,35.00
2017-11-01T03:37:36.839Z,30.17
2017-11-01T03:40:05.088Z,32.83
2017-11-01T03:42:32.583Z,35.53
2017-11-01T03:44:59.256Z,33.63
2017-11-01T03:47:26.869Z,36.37
2017-11-01T03:49:54.292Z,30.83
2017-11-01T03:52:20.991Z,35.27
2017-11-01T03:54:47.727Z,27.40
2017-11-01T03:57:15.404Z,27.90
2017-11-01T03:59:42.129Z,28.73
2017-11-01T04:02:09.053Z,27.80
2017-11-01T04:04:36.145Z,25.30
2017-11-01T04:07:03.899Z,28.87
2017-11-01T04:09:31.344Z,26.93
2017-11-01T04:11:58.253Z,31.27
2017-11-01T04:14:24.942Z,26.57
2017-11-01T04:16:52.676Z,22.97
2017-11-01T04:19:23.276Z,27.77
2017-11-01T04:21:50.038Z,23.70
2017-11-01T04:24:16.731Z,25.07
2017-11-01T04:26:43.393Z,27.23
2017-11-01T04:29:10.260Z,19.63
2017-11-01T04:31:37.044Z,26.07
2017-11-01T04:34:03.984Z,22.67
2017-11-01T04:36:30.802Z,23.80
2017-11-01T04:38:57.452Z,23.10
2017-11-01T04:41:26.302Z,22.57
2017-11-01T04:43:54.453Z,23.33
2017-11-01T04:46:22.168Z,21.73
2017-11-01T04:48:50.540Z,19.90
2017-11-01T04:51:17.273Z,20.83
2017-11-01T04:53:43.846Z,12.67
2017-11-01T04:56:11.272Z,12.67
2017-11-01T04:58:38.776Z,11.10
2017-11-01T05:01:05.440Z,12.40
2017-11-01T05:03:33.000Z,10.43
2017-11-01T05:05:59.712Z,13.07
2017-11-01T05:08:32.961Z,11.67
2017-11-01T05:11:05.481Z,12.30
2017-11-01T05:13:34.931Z,10.40
2017-11-01T05:16:02.680Z,11.60
2017-11-01T05:18:29.347Z,15.90
2017-11-01T05:20:56.886Z,13.83
2017-11-01T05:23:23.957Z,17.07
2017-11-01T05:25:54.624Z,16.93
2017-11-01T05:28:21.223Z,16.47
2017-11-01T05:30:48.611Z,19.37
2017-11-01T05:33:15.899Z,17.93
2017-11-01T05:35:42.608Z,26.20
2017-11-01T05:38:09.408Z,17.53
2017-11-01T05:40:36.161Z,26.20
2017-11-01T05:43:02.859Z,19.50
2017-11-01T05:45:29.621Z,22.77
2017-11-01T05:47:56.573Z,29.40
2017-11-01T05:50:23.210Z,24.47
2017-11-01T05:52:49.791Z,27.03
2017-11-01T05:55:16.626Z,27.90
2017-11-01T05:57:43.365Z,27.67
2017-11-01T06:00:10.036Z,22.33
2017-11-01T06:02:36.859Z,25.50
2017-11-01T06:05:03.633Z,27.30
2017-11-01T06:07:30.460Z,23.33
2017-11-01T06:09:57.031Z,23.13
2017-11-01T06:12:23.799Z,26.17
2017-11-01T06:14:50.606Z,29.90
2017-11-01T06:17:17.325Z,20.50
2017-11-01T06:19:43.898Z,24.00
2017-11-01T06:22:10.671Z,22.87
2017-11-01T06:24:37.442Z,27.60
2017-11-01T06:27:04.187Z,23.97
2017-11-01T06:29:30.976Z,27.70
2017-11-01T06:31:57.689Z,29.80
2017-11-01T06:34:24.492Z,27.07
2017-11-01T06:36:51.680Z,27.83
2017-11-01T06:39:18.625Z,30.67
2017-11-01T06:41:45.307Z,30.80
2017-11-01T06:44:12.102Z,34.97
2017-11-01T06:46:38.849Z,30.50
2017-11-01T06:49:05.496Z,29.43
2017-11-01T06:51:32.296Z,33.33
2017-11-01T06:53:58.950Z,26.97
2017-11-01T06:56:25.528Z,30.90
2017-11-01T06:58:52.330Z,30.00
2017-11-01T07:01:19.077Z,25.40
2017-11-01T07:03:45.682Z,29.30
2017-11-01T07:06:12.459Z,29.27
2017-11-01T07:08:39.115Z,26.00
2017-11-01T07:11:05.825Z,23.03
2017-11-01T07:13:33.179Z,18.80
2017-11-01T07:16:06.698Z,20.87
2017-11-01T07:18:34.129Z,21.33
2017-11-01T07:21:01.041Z,20.37
2017-11-01T07:23:27.788Z,19.70
2017-11-01T07:25:54.584Z,14.67
2017-11-01T07:28:21.355Z,14.07
2017-11-01T07:30:48.061Z,12.80
2017-11-01T07:33:14.806Z,17.97
2017-11-01T07:35:41.524Z,12.17
2017-11-01T07:38:08.328Z,10.27
2017-11-01T07:40:35.072Z,13.90
2017-11-01T07:43:01.742Z,19.70
2017-11-01T07:45:28.501Z,16.53
2017-11-01T07:47:55.068Z,18.40
2017-11-01T07:50:21.727Z,19.43
2017-11-01T07:52:48.497Z,18.37
2017-11-01T07:55:15.106Z,21.63
2017-11-01T07:57:41.833Z,23.73
2017-11-01T08:00:08.717Z,27.30
2017-11-01T08:02:35.564Z,25.20
2017-11-01T08:05:02.265Z,30.90
2017-11-01T08:07:28.908Z,31.43
2017-11-01T08:09:56.152Z,27.53
2017-11-01T08:12:22.722Z,27.77
2017-11-01T08:14:49.438Z,33.00
2017-11-01T08:17:16.220Z,32.43
2017-11-01T08:19:42.897Z,33.63
2017-11-01T08:22:09.617Z,30.10
2017-11-01T08:24:36.175Z,27.00
2017-11-01T08:27:03.065Z,22.37
2017-11-01T08:29:29.847Z,23.70
2017-11-01T08:31:56.629Z,27.30
2017-11-01T08:34:23.399Z,25.47
2017-11-01T08:36:51.015Z,24.47
2017-11-01T08:39:17.851Z,27.47
2017-11-01T08:41:44.540Z,23.27
2017-11-01T08:44:11.420Z,27.43
2017-11-01T08:46:37.979Z,23.50
2017-11-01T08:49:05.417Z,27.07
2017-11-01T08:51:32.166Z,20.50
2017-11-01T08:53:58.727Z,32.00
2017-11-01T08:56:25.460Z,23.80
2017-11-01T08:58:52.239Z,22.80
2017-11-01T09:01:19.006Z,23.13
2017-11-01T09:03:46.424Z,24.10
2017-11-01T09:06:13.435Z,23.97
2017-11-01T09:08:39.988Z,24.97
2017-11-01T09:11:06.559Z,22.60
2017-11-01T09:13:33.255Z,28.07
2017-11-01T09:16:01.466Z,19.67
2017-11-01T09:18:28.082Z,27.43
2017-11-01T09:20:54.823Z,20.53
2017-11-01T09:23:21.376Z,17.10
2017-11-01T09:25:48.046Z,15.10
2017-11-01T09:28:14.800Z,16.47
2017-11-01T09:30:41.521Z,21.70
2017-11-01T09:33:08.306Z,14.73
2017-11-01T09:35:35.794Z,13.57
2017-11-01T09:38:03.234Z,21.03
2017-11-01T09:40:30.858Z,17.13
2017-11-01T09:42:57.417Z,14.17
2017-11-01T09:45:24.079Z,12.90
2017-11-01T09:47:50.767Z,16.07
2017-11-01T09:52:50.499Z,10.77
2017-11-01T09:55:17.853Z,11.87
2017-11-01T09:57:44.574Z,15.80
2017-11-01T10:00:11.523Z,15.10
2017-11-01T10:02:38.149Z,14.57
2017-11-01T10:05:04.775Z,12.30
2017-11-01T10:07:31.320Z,15.63
2017-11-01T10:09:57.983Z,15.80
2017-11-01T10:12:24.658Z,17.10
2017-11-01T10:14:51.883Z,14.03
2017-11-01T10:17:18.637Z,13.27
2017-11-01T10:19:46.157Z,11.63
2017-11-01T10:22:13.472Z,9.03
2017-11-01T10:24:40.024Z,13.27
2017-11-01T10:27:07.942Z,10.70
2017-11-01T10:29:37.693Z,11.93
2017-11-01T10:32:06.625Z,11.47
2017-11-01T10:34:33.479Z,11.93
2017-11-01T10:37:00.312Z,12.97
2017-11-01T10:39:27.185Z,9.63
2017-11-01T10:41:53.994Z,9.33
2017-11-01T10:44:20.837Z,7.20
2017-11-01T10:46:47.618Z,12.20
2017-11-01T10:49:14.536Z,16.37
2017-11-01T10:51:41.270Z,8.27
2017-11-01T10:54:15.892Z,9.13
2017-11-01T10:56:42.716Z,7.43
2017-11-01T10:59:09.570Z,10.57
2017-11-01T11:01:36.467Z,7.77
2017-11-01T11:04:03.448Z,7.93
2017-11-01T11:06:30.843Z,8.10
2017-11-01T11:08:57.980Z,10.27
2017-11-01T11:11:24.615Z,15.10
2017-11-01T11:13:51.757Z,12.77
2017-11-01T11:16:18.710Z,18.30
2017-11-01T11:18:45.266Z,12.80
2017-11-01T11:21:12.086Z,10.90
2017-11-01T11:23:41.215Z,10.63
2017-11-01T11:26:08.140Z,9.47
2017-11-01T11:28:34.739Z,14.90
2017-11-01T11:31:01.554Z,13.80
2017-11-01T11:33:28.503Z,10.90
2017-11-01T11:35:56.286Z,9.07
2017-11-01T11:38:22.965Z,13.07
2017-11-01T11:40:50.560Z,12.80
2017-11-01T11:43:18.057Z,9.93
2017-11-01T11:45:44.894Z,12.10
2017-11-01T11:48:13.307Z,15.57
2017-11-01T11:50:40.226Z,11.97
2017-11-01T11:53:07.563Z,13.73
2017-11-01T11:55:34.649Z,9.50
2017-11-01T11:58:02.315Z,10.53
2017-11-01T12:00:29.845Z,11.80
2017-11-01T12:02:56.435Z,14.93
2017-11-01T12:05:23.010Z,12.60
2017-11-01T12:07:50.552Z,14.13
2017-11-01T12:10:17.085Z,12.47
2017-11-01T12:12:43.799Z,16.83
2017-11-01T12:15:10.462Z,12.27
2017-11-01T12:17:37.583Z,15.33
2017-11-01T12:20:05.016Z,15.77
2017-11-01T12:22:31.831Z,16.03
2017-11-01T12:24:58.642Z,21.67
2017-11-01T12:27:25.746Z,15.40
2017-11-01T12:29:53.573Z,20.33
2017-11-01T12:32:21.585Z,21.40
2017-11-01T12:34:49.911Z,25.87
2017-11-01T12:37:18.302Z,20.97
2017-11-01T12:39:44.875Z,29.03
2017-11-01T12:42:13.274Z,23.60
2017-11-01T12:44:41.467Z,25.20
2017-11-01T12:47:10.608Z,30.60
2017-11-01T12:49:38.298Z,25.93
2017-11-01T12:52:06.089Z,30.70
2017-11-01T12:54:34.540Z,33.60
2017-11-01T12:57:03.177Z,19.53
2017-11-01T12:59:30.646Z,30.00
2017-11-01T13:01:59.728Z,34.57
2017-11-01T13:04:27.833Z,37.30
2017-11-01T13:06:55.255Z,30.77
2017-11-01T13:09:23.783Z,34.17
2017-11-01T13:11:51.773Z,31.03
2017-11-01T13:14:19.214Z,27.67
2017-11-01T13:16:46.752Z,38.70
2017-11-01T13:19:13.648Z,38.40
2017-11-01T13:21:42.200Z,35.17
2017-11-01T13:24:10.582Z,49.80
2017-11-01T13:26:37.632Z,38.30
2017-11-01T13:29:09.159Z,44.03
2017-11-01T13:31:36.614Z,47.13
2017-11-01T13:34:03.512Z,43.43
2017-11-01T13:36:30.233Z,42.10
2017-11-01T13:38:59.117Z,42.00
2017-11-01T13:41:25.868Z,46.03
2017-11-01T13:43:53.226Z,42.83
2017-11-01T13:46:19.947Z,50.20
2017-11-01T13:48:47.008Z,62.33
2017-11-01T13:51:16.337Z,43.47
2017-11-01T13:53:43.802Z,42.60
2017-11-01T13:56:11.592Z,55.60
2017-11-01T13:58:38.358Z,46.13
2017-11-01T14:01:05.231Z,52.10
2017-11-01T14:03:33.061Z,48.23
2017-11-01T14:06:01.068Z,50.10
2017-11-01T14:08:29.208Z,48.90
2017-11-01T14:10:56.705Z,45.50
2017-11-01T14:13:23.483Z,56.80
2017-11-01T14:15:50.057Z,49.23
2017-11-01T14:18:16.809Z,39.43
2017-11-01T14:20:44.651Z,71.83
2017-11-01T14:23:13.007Z,44.87
2017-11-01T14:25:39.806Z,38.40
2017-11-01T14:28:08.963Z,44.93
2017-11-01T14:30:36.639Z,52.27
2017-11-01T14:33:04.267Z,34.60
2017-11-01T14:35:31.271Z,47.53
2017-11-01T14:37:59.091Z,42.93
2017-11-01T14:40:30.993Z,49.73
2017-11-01T14:42:58.920Z,39.47
2017-11-01T14:45:29.991Z,42.43
2017-11-01T14:47:58.347Z,44.07
2017-11-01T14:50:25.006Z,51.17
2017-11-01T14:52:51.575Z,52.13
2017-11-01T14:55:18.359Z,46.33
2017-11-01T14:57:45.393Z,42.07
2017-11-01T15:00:13.121Z,47.97
2017-11-01T15:02:40.513Z,45.33
2017-11-01T15:05:07.438Z,55.93
2017-11-01T15:07:34.142Z,47.80
2017-11-01T15:10:00.947Z,59.63
2017-11-01T15:12:27.697Z,44.10
2017-11-01T15:14:55.297Z,38.37
2017-11-01T15:17:22.088Z,35.50
2017-11-01T15:19:48.752Z,40.50
2017-11-01T15:22:15.627Z,40.30
2017-11-01T15:24:42.302Z,39.63
2017-11-01T15:27:10.440Z,43.80
2017-11-01T15:29:37.148Z,40.53
2017-11-01T15:32:03.899Z,38.40
2017-11-01T15:34:30.707Z,46.60
2017-11-01T15:36:57.748Z,48.90
2017-11-01T15:39:25.108Z,46.07
2017-11-01T15:41:52.450Z,32.13
2017-11-01T15:44:19.156Z,43.73
2017-11-01T15:46:45.750Z,34.03
2017-11-01T15:49:12.692Z,37.07
2017-11-01T15:51:39.344Z,36.80
2017-11-01T15:54:05.946Z,38.97
2017-11-01T15:56:33.970Z,43.77
2017-11-01T15:59:01.515Z,30.33
2017-11-01T16:01:29.223Z,41.53
2017-11-01T16:03:56.159Z,40.10
2017-11-01T16:06:22.877Z,31.23
2017-11-01T16:08:49.424Z,37.73
2017-11-01T16:11:16.825Z,23.40
2017-11-01T16:13:43.431Z,38.07
2017-11-01T16:16:11.771Z,19.57
2017-11-01T16:18:38.622Z,28.47
2017-11-01T16:21:06.031Z,31.87
2017-11-01T16:23:33.683Z,34.40
2017-11-01T16:26:00.314Z,39.63
2017-11-01T16:28:27.489Z,49.87
2017-11-01T16:30:54.572Z,37.37
2017-11-01T16:33:21.308Z,35.83
2017-11-01T16:35:48.782Z,39.47
2017-11-01T16:38:15.521Z,44.47
2017-11-01T16:40:43.202Z,44.80
2017-11-01T16:43:11.730Z,41.17
2017-11-01T16:45:38.384Z,36.13
2017-11-01T16:48:04.970Z,50.73
2017-11-01T16:50:32.353Z,38.67
2017-11-01T16:52:59.016Z,42.83
2017-11-01T16:55:25.869Z,47.73
2017-11-01T16:57:52.630Z,41.73
2017-11-01T17:00:20.035Z,38.27
2017-11-01T17:02:46.831Z,43.37
2017-11-01T17:05:14.437Z,47.57
2017-11-01T17:07:41.791Z,48.87
2017-11-01T17:10:08.532Z,48.87
2017-11-01T17:12:35.808Z,57.33
2017-11-01T17:15:03.112Z,41.03
2017-11-01T17:17:29.795Z,50.00
2017-11-01T17:19:56.597Z,53.47
2017-11-01T17:22:23.995Z,43.17
2017-11-01T17:24:50.956Z,35.67
2017-11-01T17:27:17.685Z,56.13
2017-11-01T17:29:44.640Z,36.47
2017-11-01T17:32:12.905Z,42.70
2017-11-01T17:34:41.086Z,32.33
2017-11-01T17:37:07.836Z,38.43
2017-11-01T17:39:34.554Z,37.40
2017-11-01T17:42:01.188Z,43.10
2017-11-01T17:44:27.813Z,51.10
2017-11-01T17:46:55.430Z,41.97
2017-11-01T17:49:22.339Z,35.17
2017-11-01T17:51:49.657Z,40.13
2017-11-01T17:54:19.440Z,46.23
2017-11-01T17:56:46.414Z,32.87
2017-11-01T17:59:13.999Z,39.67
2017-11-01T18:01:42.389Z,42.73
2017-11-01T18:04:09.480Z,31.67
2017-11-01T18:06:39.371Z,31.80
2017-11-01T18:09:08.244Z,33.43
2017-11-01T18:11:34.989Z,31.97
2017-11-01T18:14:03.363Z,32.47
2017-11-01T18:16:31.135Z,36.57
2017-11-01T18:18:58.688Z,38.93
2017-11-01T18:21:25.425Z,38.27
2017-11-01T18:23:52.992Z,46.57
2017-11-01T18:26:19.736Z,43.97
2017-11-01T18:28:46.503Z,42.63
2017-11-01T18:31:14.030Z,42.43
2017-11-01T18:33:45.806Z,38.47
2017-11-01T18:36:13.460Z,42.30
2017-11-01T18:38:39.984Z,53.77
2017-11-01T18:41:06.622Z,34.07
2017-11-01T18:43:34.911Z,42.13
2017-11-01T18:46:02.480Z,44.00
2017-11-01T18:48:29.115Z,47.93
2017-11-01T18:50:55.754Z,51.23
2017-11-01T18:53:22.506Z,47.77
2017-11-01T18:55:49.132Z,49.53
2017-11-01T18:58:15.877Z,45.03
2017-11-01T19:00:43.694Z,46.17
2017-11-01T19:03:10.273Z,48.40
2017-11-01T19:05:36.792Z,61.20
2017-11-01T19:08:03.572Z,54.87
2017-11-01T19:10:31.004Z,54.83
2017-11-01T19:12:57.999Z,54.63
2017-11-01T19:15:24.573Z,52.87
2017-11-01T19:17:51.228Z,58.00
2017-11-01T19:20:17.951Z,49.23
2017-11-01T19:22:45.406Z,65.30
2017-11-01T19:25:12.173Z,58.50
2017-11-01T19:27:39.043Z,47.90
2017-11-01T19:30:05.883Z,66.60
2017-11-01T19:32:32.614Z,48.70
2017-11-01T19:34:59.312Z,53.77
2017-11-01T19:37:26.953Z,62.30
2017-11-01T19:39:53.703Z,55.77
2017-11-01T19:42:21.914Z,61.20
2017-11-01T19:44:49.068Z,74.80
2017-11-01T19:47:15.668Z,64.37
2017-11-01T19:49:43.117Z,68.63
2017-11-01T19:52:09.707Z,58.10
2017-11-01T19:54:36.455Z,62.83
2017-11-01T19:57:03.571Z,67.07
2017-11-01T19:59:30.152Z,57.20
2017-11-01T20:01:56.918Z,58.80
2017-11-01T20:04:24.195Z,64.50
2017-11-01T20:06:51.161Z,81.93
2017-11-01T20:09:18.745Z,52.77
2017-11-01T20:11:46.754Z,55.63
2017-11-01T20:14:13.623Z,59.57
2017-11-01T20:16:40.473Z,67.23
2017-11-01T20:19:07.867Z,67.37
2017-11-01T20:21:34.844Z,72.77
2017-11-01T20:24:01.654Z,53.57
2017-11-01T20:26:28.714Z,70.27
2017-11-01T20:28:55.472Z,37.03
2017-11-01T20:31:22.129Z,62.17
2017-11-01T20:33:50.022Z,54.07
2017-11-01T20:36:17.490Z,62.37
2017-11-01T20:38:44.221Z,44.90
2017-11-01T20:41:11.706Z,69.17
2017-11-01T20:43:39.083Z,51.97
2017-11-01T20:46:05.803Z,63.83
2017-11-01T20:48:32.434Z,59.07
2017-11-01T20:50:59.481Z,50.03
2017-11-01T20:53:26.194Z,55.33
2017-11-01T20:55:52.747Z,53.53
2017-11-01T20:58:20.159Z,53.57
2017-11-01T21:00:46.919Z,56.10
2017-11-01T21:03:13.731Z,53.53
2017-11-01T21:05:40.434Z,46.90
2017-11-01T21:08:10.623Z,64.87
2017-11-01T21:10:37.530Z,56.27
2017-11-01T21:13:04.947Z,51.47
2017-11-01T21:15:31.555Z,59.13
2017-11-01T21:17:59.084Z,62.40
2017-11-01T21:20:25.829Z,48.40
2017-11-01T21:22:52.723Z,53.97
2017-11-01T21:25:20.375Z,47.17
2017-11-01T21:27:47.796Z,55.17
2017-11-01T21:30:15.621Z,40.73
2017-11-01T21:32:42.958Z,55.27
2017-11-01T21:35:09.752Z,52.90
2017-11-01T21:37:36.320Z,39.63
2017-11-01T21:40:03.545Z,34.73
2017-11-01T21:42:30.328Z,52.30
2017-11-01T21:44:57.364Z,38.60
2017-11-01T21:47:24.815Z,45.67
2017-11-01T21:49:52.300Z,42.37
2017-11-01T21:52:19.092Z,43.10
2017-11-01T21:54:46.028Z,42.60
2017-11-01T21:57:13.204Z,36.47
2017-11-01T21:59:39.867Z,30.10
2017-11-01T22:02:06.626Z,46.60
2017-11-01T22:04:33.377Z,35.60
2017-11-01T22:07:00.216Z,42.47
2017-11-01T22:09:27.665Z,27.50
2017-11-01T22:11:59.271Z,24.80
2017-11-01T22:14:25.899Z,29.37
2017-11-01T22:16:54.693Z,27.90
2017-11-01T22:19:21.558Z,24.67
2017-11-01T22:21:48.089Z,27.57
2017-11-01T22:24:17.721Z,21.17
2017-11-01T22:26:44.526Z,21.47
2017-11-01T22:29:11.449Z,21.57
2017-11-01T22:31:38.133Z,23.27
2017-11-01T22:34:05.004Z,18.27
2017-11-01T22:36:31.814Z,18.37
2017-11-01T22:38:58.552Z,16.20
2017-11-01T22:41:25.346Z,18.50
2017-11-01T22:43:51.982Z,26.67
2017-11-01T22:46:19.627Z,21.20
2017-11-01T22:48:46.441Z,29.30
2017-11-01T22:51:13.044Z,16.20
2017-11-01T22:53:39.587Z,11.30
2017-11-01T22:56:06.251Z,13.70
2017-11-01T22:58:32.893Z,13.43
2017-11-01T23:00:59.492Z,17.07
2017-11-01T23:03:26.227Z,23.03
2017-11-01T23:05:52.796Z,15.83
2017-11-01T23:08:19.617Z,16.83
2017-11-01T23:10:46.382Z,19.13
2017-11-01T23:13:13.265Z,16.77
2017-11-01T23:15:40.019Z,22.03
2017-11-01T23:18:06.688Z,17.47
2017-11-01T23:20:33.324Z,9.57
2017-11-01T23:22:59.859Z,19.70
2017-11-01T23:25:26.535Z,19.47
2017-11-01T23:27:54.865Z,19.23
2017-11-01T23:30:22.437Z,16.43
2017-11-01T23:32:49.924Z,13.40
2017-11-01T23:35:16.521Z,20.37
2017-11-01T23:37:44.072Z,23.10
2017-11-01T23:40:10.736Z,22.13
2017-11-01T23:42:38.192Z,28.73
2017-11-01T23:45:05.616Z,33.87
2017-11-01T23:47:33.921Z,29.57
2017-11-01T23:50:01.421Z,30.10
2017-11-01T23:52:28.081Z,28.37
2017-11-01T23:54:55.553Z,25.57
2017-11-01T23:57:23.170Z,39.97
2017-11-01T23:59:50.634Z,25.90
